sensor_id;sensor_type;location;lat;lon;timestamp;pressure;altitude;pressure_sealevel;temperature;humidity
55418;BME280;41287;47.554;7.844;2023-05-01T00:00:15;97864.53;;;19.04;50.88
55418;BME280;41287;47.554;7.844;2023-05-01T00:02:43;97859.09;;;19.04;50.92
55418;BME280;41287;47.554;7.844;2023-05-01T00:05:08;97857.53;;;19.03;50.88
55418;BME280;41287;47.554;7.844;2023-05-01T00:07:33;97858.31;;;19.03;50.77
55418;BME280;41287;47.554;7.844;2023-05-01T00:10:01;97862.16;;;19.02;50.95
55418;BME280;41287;47.554;7.844;2023-05-01T00:12:28;97855.94;;;19.02;50.73
55418;BME280;41287;47.554;7.844;2023-05-01T00:14:54;97858.66;;;19.02;50.77
55418;BME280;41287;47.554;7.844;2023-05-01T00:17:19;97853.22;;;19.02;50.88
55418;BME280;41287;47.554;7.844;2023-05-01T00:19:50;97857.84;;;19.01;51.03
55418;BME280;41287;47.554;7.844;2023-05-01T00:22:16;97863.28;;;19.01;50.99
55418;BME280;41287;47.554;7.844;2023-05-01T00:24:41;97857.06;;;19.01;51.02
55418;BME280;41287;47.554;7.844;2023-05-01T00:27:06;97850.84;;;19.00;50.85
55418;BME280;41287;47.554;7.844;2023-05-01T00:29:32;97855.47;;;19.00;51.09
55418;BME280;41287;47.554;7.844;2023-05-01T00:31:57;97850.03;;;19.00;50.90
55418;BME280;41287;47.554;7.844;2023-05-01T00:34:24;97848.47;;;18.99;50.91
55418;BME280;41287;47.554;7.844;2023-05-01T00:36:51;97856.25;;;19.00;51.21
55418;BME280;41287;47.554;7.844;2023-05-01T00:39:16;97851.97;;;18.99;51.05
55418;BME280;41287;47.554;7.844;2023-05-01T00:41:41;97848.47;;;18.99;51.03
55418;BME280;41287;47.554;7.844;2023-05-01T00:44:07;97851.97;;;18.99;50.93
55418;BME280;41287;47.554;7.844;2023-05-01T00:46:33;97842.59;;;18.97;51.20
55418;BME280;41287;47.554;7.844;2023-05-01T00:48:58;97840.66;;;18.97;50.96
55418;BME280;41287;47.554;7.844;2023-05-01T00:51:25;97838.72;;;18.98;51.15
55418;BME280;41287;47.554;7.844;2023-05-01T00:53:54;97836.00;;;18.98;51.17
55418;BME280;41287;47.554;7.844;2023-05-01T00:56:22;97837.94;;;18.97;51.23
55418;BME280;41287;47.554;7.844;2023-05-01T00:58:49;97839.09;;;18.96;51.26
55418;BME280;41287;47.554;7.844;2023-05-01T01:01:26;97836.38;;;18.96;51.02
55418;BME280;41287;47.554;7.844;2023-05-01T01:03:52;97833.66;;;18.96;51.14
55418;BME280;41287;47.554;7.844;2023-05-01T01:12:02;97826.97;;;18.93;51.26
55418;BME280;41287;47.554;7.844;2023-05-01T01:17:41;97825.06;;;18.94;51.36
55418;BME280;41287;47.554;7.844;2023-05-01T01:20:17;97822.69;;;18.92;51.34
55418;BME280;41287;47.554;7.844;2023-05-01T01:22:49;97818.81;;;18.93;51.30
55418;BME280;41287;47.554;7.844;2023-05-01T01:28:16;97820.28;;;18.91;51.43
55418;BME280;41287;47.554;7.844;2023-05-01T01:36:05;97816.78;;;18.90;51.60
55418;BME280;41287;47.554;7.844;2023-05-01T01:38:40;97816.03;;;18.90;51.40
55418;BME280;41287;47.554;7.844;2023-05-01T01:41:11;97818.38;;;18.91;51.49
55418;BME280;41287;47.554;7.844;2023-05-01T01:43:41;97815.66;;;18.91;51.51
55418;BME280;41287;47.554;7.844;2023-05-01T01:46:09;97814.06;;;18.90;51.66
55418;BME280;41287;47.554;7.844;2023-05-01T01:48:37;97811.34;;;18.90;51.70
55418;BME280;41287;47.554;7.844;2023-05-01T01:51:07;97816.03;;;18.90;51.53
55418;BME280;41287;47.554;7.844;2023-05-01T01:53:36;97816.03;;;18.90;51.56
55418;BME280;41287;47.554;7.844;2023-05-01T01:56:04;97809.00;;;18.89;51.80
55418;BME280;41287;47.554;7.844;2023-05-01T01:58:32;97809.81;;;18.89;51.73
55418;BME280;41287;47.554;7.844;2023-05-01T02:00:59;97810.94;;;18.88;51.76
55418;BME280;41287;47.554;7.844;2023-05-01T02:03:25;97810.94;;;18.88;51.71
55418;BME280;41287;47.554;7.844;2023-05-01T02:05:53;97809.81;;;18.89;51.77
55418;BME280;41287;47.554;7.844;2023-05-01T02:08:20;97812.50;;;18.89;51.84
55418;BME280;41287;47.554;7.844;2023-05-01T02:10:49;97805.03;;;18.86;51.73
55418;BME280;41287;47.554;7.844;2023-05-01T02:13:22;97808.22;;;18.88;51.81
55418;BME280;41287;47.554;7.844;2023-05-01T02:15:49;97813.63;;;18.88;51.67
55418;BME280;41287;47.554;7.844;2023-05-01T02:18:15;97814.78;;;18.87;51.70
55418;BME280;41287;47.554;7.844;2023-05-01T02:20:42;97805.84;;;18.87;51.90
55418;BME280;41287;47.554;7.844;2023-05-01T02:23:10;97805.03;;;18.86;51.75
55418;BME280;41287;47.554;7.844;2023-05-01T02:25:39;97810.47;;;18.86;51.80
55418;BME280;41287;47.554;7.844;2023-05-01T02:28:11;97808.88;;;18.85;51.94
55418;BME280;41287;47.554;7.844;2023-05-01T02:30:37;97810.47;;;18.86;51.94
55418;BME280;41287;47.554;7.844;2023-05-01T02:33:04;97804.25;;;18.86;51.84
55418;BME280;41287;47.554;7.844;2023-05-01T02:35:30;97814.31;;;18.85;51.86
55418;BME280;41287;47.554;7.844;2023-05-01T02:37:56;97810.81;;;18.85;51.98
55418;BME280;41287;47.554;7.844;2023-05-01T02:40:21;97811.59;;;18.85;51.91
55418;BME280;41287;47.554;7.844;2023-05-01T02:42:48;97810.81;;;18.85;51.89
55418;BME280;41287;47.554;7.844;2023-05-01T02:45:19;97806.50;;;18.84;52.04
55418;BME280;41287;47.554;7.844;2023-05-01T02:47:50;97811.59;;;18.85;51.81
55418;BME280;41287;47.554;7.844;2023-05-01T02:50:16;97811.94;;;18.84;52.00
55418;BME280;41287;47.554;7.844;2023-05-01T02:52:42;97818.16;;;18.84;52.03
55418;BME280;41287;47.554;7.844;2023-05-01T02:55:10;97808.44;;;18.83;51.99
55418;BME280;41287;47.554;7.844;2023-05-01T02:57:36;97808.44;;;18.83;52.07
55418;BME280;41287;47.554;7.844;2023-05-01T03:00:01;97815.81;;;18.83;51.93
55418;BME280;41287;47.554;7.844;2023-05-01T03:02:27;97815.44;;;18.84;51.99
55418;BME280;41287;47.554;7.844;2023-05-01T03:04:52;97803.78;;;18.84;52.09
55418;BME280;41287;47.554;7.844;2023-05-01T03:07:17;97806.50;;;18.84;52.02
55418;BME280;41287;47.554;7.844;2023-05-01T03:09:43;97801.44;;;18.82;52.04
55418;BME280;41287;47.554;7.844;2023-05-01T03:12:08;97798.72;;;18.82;52.07
55418;BME280;41287;47.554;7.844;2023-05-01T03:14:33;97795.22;;;18.82;52.01
55418;BME280;41287;47.554;7.844;2023-05-01T03:16:59;97789.78;;;18.82;52.04
55418;BME280;41287;47.554;7.844;2023-05-01T03:19:24;97797.13;;;18.81;52.06
55418;BME280;41287;47.554;7.844;2023-05-01T03:21:50;97791.38;;;18.83;52.23
55418;BME280;41287;47.554;7.844;2023-05-01T03:24:15;97790.59;;;18.82;52.21
55418;BME280;41287;47.554;7.844;2023-05-01T03:26:41;97793.63;;;18.81;52.21
55418;BME280;41287;47.554;7.844;2023-05-01T03:29:06;97785.47;;;18.81;52.17
55418;BME280;41287;47.554;7.844;2023-05-01T03:31:32;97788.19;;;18.81;52.13
55418;BME280;41287;47.554;7.844;2023-05-01T03:33:57;97787.06;;;18.82;52.30
55418;BME280;41287;47.554;7.844;2023-05-01T03:36:23;97781.97;;;18.80;52.20
55418;BME280;41287;47.554;7.844;2023-05-01T03:38:51;97790.91;;;18.81;52.13
55418;BME280;41287;47.554;7.844;2023-05-01T03:41:17;97786.28;;;18.81;52.17
55418;BME280;41287;47.554;7.844;2023-05-01T03:43:42;97784.69;;;18.80;52.34
55418;BME280;41287;47.554;7.844;2023-05-01T03:46:07;97787.41;;;18.80;52.34
55418;BME280;41287;47.554;7.844;2023-05-01T03:48:34;97783.91;;;18.80;52.13
55418;BME280;41287;47.554;7.844;2023-05-01T03:51:01;97783.09;;;18.79;52.40
55418;BME280;41287;47.554;7.844;2023-05-01T03:53:27;97780.38;;;18.79;52.25
55418;BME280;41287;47.554;7.844;2023-05-01T03:55:52;97777.69;;;18.79;52.62
55418;BME280;41287;47.554;7.844;2023-05-01T03:58:17;97777.69;;;18.79;52.28
55418;BME280;41287;47.554;7.844;2023-05-01T04:00:45;97777.69;;;18.79;52.36
55418;BME280;41287;47.554;7.844;2023-05-01T04:03:10;97776.09;;;18.78;52.26
55418;BME280;41287;47.554;7.844;2023-05-01T04:05:36;97781.53;;;18.78;52.30
55418;BME280;41287;47.554;7.844;2023-05-01T04:08:01;97781.53;;;18.78;52.33
55418;BME280;41287;47.554;7.844;2023-05-01T04:10:26;97772.59;;;18.78;52.51
55418;BME280;41287;47.554;7.844;2023-05-01T04:12:53;97777.22;;;18.77;52.46
55418;BME280;41287;47.554;7.844;2023-05-01T04:15:20;97778.00;;;18.78;52.48
55418;BME280;41287;47.554;7.844;2023-05-01T04:17:46;97785.38;;;18.77;52.48
55418;BME280;41287;47.554;7.844;2023-05-01T04:20:12;97783.44;;;18.78;52.46
55418;BME280;41287;47.554;7.844;2023-05-01T04:22:38;97788.06;;;18.77;52.35
55418;BME280;41287;47.554;7.844;2023-05-01T04:25:06;97787.28;;;18.77;52.40
55418;BME280;41287;47.554;7.844;2023-05-01T04:27:31;97798.13;;;18.77;52.51
55418;BME280;41287;47.554;7.844;2023-05-01T04:29:56;97798.13;;;18.77;52.55
55418;BME280;41287;47.554;7.844;2023-05-01T04:32:22;97795.44;;;18.77;52.73
55418;BME280;41287;47.554;7.844;2023-05-01T04:34:49;97798.13;;;18.77;52.54
55418;BME280;41287;47.554;7.844;2023-05-01T04:37:14;97803.56;;;18.77;52.56
55418;BME280;41287;47.554;7.844;2023-05-01T04:39:42;97798.50;;;18.75;52.54
55418;BME280;41287;47.554;7.844;2023-05-01T04:42:07;97793.88;;;18.76;52.56
55418;BME280;41287;47.554;7.844;2023-05-01T04:44:32;97798.94;;;18.77;52.52
55418;BME280;41287;47.554;7.844;2023-05-01T04:47:03;97796.59;;;18.76;52.60
55418;BME280;41287;47.554;7.844;2023-05-01T04:49:28;97795.78;;;18.75;52.50
55418;BME280;41287;47.554;7.844;2023-05-01T04:51:54;97801.22;;;18.75;52.60
55418;BME280;41287;47.554;7.844;2023-05-01T04:54:19;97800.44;;;18.75;52.65
55418;BME280;41287;47.554;7.844;2023-05-01T04:56:44;97792.28;;;18.75;52.79
55418;BME280;41287;47.554;7.844;2023-05-01T04:59:10;97799.28;;;18.76;52.78
55418;BME280;41287;47.554;7.844;2023-05-01T05:01:35;97802.34;;;18.74;52.77
55418;BME280;41287;47.554;7.844;2023-05-01T05:04:00;97803.13;;;18.75;52.64
55418;BME280;41287;47.554;7.844;2023-05-01T05:06:25;97803.13;;;18.75;52.69
55418;BME280;41287;47.554;7.844;2023-05-01T05:08:53;97804.28;;;18.74;52.70
55418;BME280;41287;47.554;7.844;2023-05-01T05:11:20;97805.06;;;18.74;52.81
55418;BME280;41287;47.554;7.844;2023-05-01T05:13:45;97808.56;;;18.75;52.75
55418;BME280;41287;47.554;7.844;2023-05-01T05:16:11;97804.28;;;18.74;52.52
55418;BME280;41287;47.554;7.844;2023-05-01T05:18:37;97803.47;;;18.73;52.67
55418;BME280;41287;47.554;7.844;2023-05-01T05:21:07;97806.19;;;18.73;52.67
55418;BME280;41287;47.554;7.844;2023-05-01T05:23:35;97815.13;;;18.74;52.67
55418;BME280;41287;47.554;7.844;2023-05-01T05:26:00;97817.03;;;18.73;52.85
55418;BME280;41287;47.554;7.844;2023-05-01T05:28:26;97806.97;;;18.74;52.96
55418;BME280;41287;47.554;7.844;2023-05-01T05:30:54;97811.63;;;18.73;52.80
55418;BME280;41287;47.554;7.844;2023-05-01T05:33:26;97814.34;;;18.73;52.85
55418;BME280;41287;47.554;7.844;2023-05-01T05:35:53;97815.47;;;18.72;52.97
55418;BME280;41287;47.554;7.844;2023-05-01T05:38:18;97813.53;;;18.73;52.78
55418;BME280;41287;47.554;7.844;2023-05-01T05:40:44;97816.25;;;18.73;52.88
55418;BME280;41287;47.554;7.844;2023-05-01T05:43:11;97812.75;;;18.72;52.92
55418;BME280;41287;47.554;7.844;2023-05-01T05:45:37;97821.69;;;18.73;52.76
55418;BME280;41287;47.554;7.844;2023-05-01T05:48:03;97807.31;;;18.72;52.97
55418;BME280;41287;47.554;7.844;2023-05-01T05:50:28;97808.44;;;18.71;52.97
55418;BME280;41287;47.554;7.844;2023-05-01T05:53:02;97814.66;;;18.72;52.83
55418;BME280;41287;47.554;7.844;2023-05-01T05:55:27;97812.75;;;18.72;53.04
55418;BME280;41287;47.554;7.844;2023-05-01T05:57:53;97816.59;;;18.71;53.08
55418;BME280;41287;47.554;7.844;2023-05-01T06:00:18;97813.88;;;18.71;53.03
55418;BME280;41287;47.554;7.844;2023-05-01T06:02:44;97812.28;;;18.70;53.07
55418;BME280;41287;47.554;7.844;2023-05-01T06:05:09;97809.56;;;18.70;52.99
55418;BME280;41287;47.554;7.844;2023-05-01T06:07:35;97815.00;;;18.70;52.99
55418;BME280;41287;47.554;7.844;2023-05-01T06:10:01;97815.78;;;18.71;53.03
55418;BME280;41287;47.554;7.844;2023-05-01T06:12:30;97815.78;;;18.71;52.74
55418;BME280;41287;47.554;7.844;2023-05-01T06:14:56;97823.13;;;18.70;53.06
55418;BME280;41287;47.554;7.844;2023-05-01T06:17:22;97817.72;;;18.70;52.97
55418;BME280;41287;47.554;7.844;2023-05-01T06:19:48;97825.84;;;18.70;53.16
55418;BME280;41287;47.554;7.844;2023-05-01T06:22:13;97815.00;;;18.70;52.99
55418;BME280;41287;47.554;7.844;2023-05-01T06:24:38;97826.22;;;18.69;53.01
55418;BME280;41287;47.554;7.844;2023-05-01T06:27:04;97821.59;;;18.69;53.03
55418;BME280;41287;47.554;7.844;2023-05-01T06:29:30;97827.78;;;18.70;53.19
55418;BME280;41287;47.554;7.844;2023-05-01T06:31:55;97824.28;;;18.69;53.06
55418;BME280;41287;47.554;7.844;2023-05-01T06:34:20;97825.06;;;18.70;53.10
55418;BME280;41287;47.554;7.844;2023-05-01T06:36:46;97829.72;;;18.69;53.10
55418;BME280;41287;47.554;7.844;2023-05-01T06:39:11;97831.66;;;18.69;53.06
55418;BME280;41287;47.554;7.844;2023-05-01T06:41:36;97826.22;;;18.69;53.17
55418;BME280;41287;47.554;7.844;2023-05-01T06:44:03;97835.16;;;18.69;53.06
55418;BME280;41287;47.554;7.844;2023-05-01T06:46:28;97834.69;;;18.67;53.16
55418;BME280;41287;47.554;7.844;2023-05-01T06:48:54;97838.19;;;18.68;53.09
55418;BME280;41287;47.554;7.844;2023-05-01T06:51:19;97836.28;;;18.68;53.11
55418;BME280;41287;47.554;7.844;2023-05-01T06:53:44;97847.94;;;18.69;53.20
55418;BME280;41287;47.554;7.844;2023-05-01T06:56:10;97838.19;;;18.68;53.14
55418;BME280;41287;47.554;7.844;2023-05-01T06:58:35;97848.25;;;18.67;53.18
55418;BME280;41287;47.554;7.844;2023-05-01T07:01:00;97840.13;;;18.67;53.09
55418;BME280;41287;47.554;7.844;2023-05-01T07:03:26;97855.28;;;18.68;53.22
55418;BME280;41287;47.554;7.844;2023-05-01T07:05:54;97850.97;;;18.67;53.38
55418;BME280;41287;47.554;7.844;2023-05-01T07:08:20;97854.81;;;18.66;52.95
55418;BME280;41287;47.554;7.844;2023-05-01T07:10:45;97853.69;;;18.67;51.83
55418;BME280;41287;47.554;7.844;2023-05-01T07:13:11;97850.28;;;18.70;50.66
55418;BME280;41287;47.554;7.844;2023-05-01T07:15:36;97852.78;;;18.75;50.15
55418;BME280;41287;47.554;7.844;2023-05-01T07:18:02;97849.03;;;18.80;49.54
55418;BME280;41287;47.554;7.844;2023-05-01T07:20:30;97851.53;;;18.85;49.01
55418;BME280;41287;47.554;7.844;2023-05-01T07:22:56;97850.06;;;18.87;48.80
55418;BME280;41287;47.554;7.844;2023-05-01T07:25:21;97854.47;;;18.92;48.41
55418;BME280;41287;47.554;7.844;2023-05-01T07:27:46;97854.91;;;18.94;48.26
55418;BME280;41287;47.554;7.844;2023-05-01T07:30:12;97857.72;;;18.98;47.85
55418;BME280;41287;47.554;7.844;2023-05-01T07:32:37;97858.97;;;19.00;47.72
55418;BME280;41287;47.554;7.844;2023-05-01T07:35:02;97858.66;;;19.02;47.47
55418;BME280;41287;47.554;7.844;2023-05-01T07:37:28;97857.16;;;19.04;47.17
55418;BME280;41287;47.554;7.844;2023-05-01T07:39:53;97861.47;;;19.05;47.17
55418;BME280;41287;47.554;7.844;2023-05-01T07:42:20;97860.00;;;19.08;47.04
55418;BME280;41287;47.554;7.844;2023-05-01T07:44:45;97856.94;;;19.09;46.92
55418;BME280;41287;47.554;7.844;2023-05-01T07:47:11;97853.88;;;19.11;46.75
55418;BME280;41287;47.554;7.844;2023-05-01T07:49:36;97861.69;;;19.12;46.38
55418;BME280;41287;47.554;7.844;2023-05-01T07:52:03;97860.56;;;19.13;46.42
55418;BME280;41287;47.554;7.844;2023-05-01T07:54:29;97855.56;;;19.15;46.43
55418;BME280;41287;47.554;7.844;2023-05-01T07:56:55;97857.16;;;19.16;46.19
55418;BME280;41287;47.554;7.844;2023-05-01T07:59:22;97858.75;;;19.17;46.10
55418;BME280;41287;47.554;7.844;2023-05-01T08:01:49;97860.31;;;19.18;46.03
55418;BME280;41287;47.554;7.844;2023-05-01T08:04:15;97868.91;;;19.20;46.04
55418;BME280;41287;47.554;7.844;2023-05-01T08:06:41;97864.28;;;19.21;45.87
55418;BME280;41287;47.554;7.844;2023-05-01T08:09:06;97861.22;;;19.22;45.71
55418;BME280;41287;47.554;7.844;2023-05-01T08:11:34;97867.88;;;19.25;45.66
55418;BME280;41287;47.554;7.844;2023-05-01T08:14:03;97865.16;;;19.25;45.52
55418;BME280;41287;47.554;7.844;2023-05-01T08:16:28;97868.34;;;19.27;45.69
55418;BME280;41287;47.554;7.844;2023-05-01T08:18:53;97869.13;;;19.27;45.50
55418;BME280;41287;47.554;7.844;2023-05-01T08:21:18;97868.78;;;19.29;45.50
55418;BME280;41287;47.554;7.844;2023-05-01T08:23:44;97870.72;;;19.28;45.26
55418;BME280;41287;47.554;7.844;2023-05-01T08:26:09;97867.66;;;19.30;45.16
55418;BME280;41287;47.554;7.844;2023-05-01T08:28:39;97872.72;;;19.31;45.17
55418;BME280;41287;47.554;7.844;2023-05-01T08:31:06;97872.38;;;19.33;45.11
55418;BME280;41287;47.554;7.844;2023-05-01T08:33:31;97871.25;;;19.34;44.94
55418;BME280;41287;47.554;7.844;2023-05-01T08:35:57;97873.66;;;19.36;45.04
55418;BME280;41287;47.554;7.844;2023-05-01T08:38:23;97879.88;;;19.36;44.80
55418;BME280;41287;47.554;7.844;2023-05-01T08:40:52;97876.03;;;19.37;44.82
55418;BME280;41287;47.554;7.844;2023-05-01T08:43:18;97872.16;;;19.38;44.91
55418;BME280;41287;47.554;7.844;2023-05-01T08:45:45;97879.16;;;19.39;44.81
55418;BME280;41287;47.554;7.844;2023-05-01T08:48:11;97881.88;;;19.39;44.86
55418;BME280;41287;47.554;7.844;2023-05-01T08:50:38;97878.03;;;19.40;44.47
55418;BME280;41287;47.554;7.844;2023-05-01T08:53:07;97878.03;;;19.40;44.76
55418;BME280;41287;47.554;7.844;2023-05-01T08:55:36;97879.63;;;19.41;44.54
55418;BME280;41287;47.554;7.844;2023-05-01T08:58:03;97877.69;;;19.42;44.60
55418;BME280;41287;47.554;7.844;2023-05-01T09:00:30;97875.78;;;19.42;44.43
55418;BME280;41287;47.554;7.844;2023-05-01T09:02:59;97869.22;;;19.43;44.43
55418;BME280;41287;47.554;7.844;2023-05-01T09:05:28;97874.31;;;19.45;44.39
55418;BME280;41287;47.554;7.844;2023-05-01T09:07:57;97877.78;;;19.45;44.35
55418;BME280;41287;47.554;7.844;2023-05-01T09:10:23;97875.88;;;19.46;44.37
55418;BME280;41287;47.554;7.844;2023-05-01T09:12:54;97881.31;;;19.46;44.38
55418;BME280;41287;47.554;7.844;2023-05-01T09:15:20;97876.69;;;19.46;44.15
55418;BME280;41287;47.554;7.844;2023-05-01T09:17:46;97879.06;;;19.48;44.16
55418;BME280;41287;47.554;7.844;2023-05-01T09:20:12;97879.88;;;19.48;44.16
55418;BME280;41287;47.554;7.844;2023-05-01T09:22:38;97880.66;;;19.49;44.22
55418;BME280;41287;47.554;7.844;2023-05-01T09:25:03;97883.03;;;19.50;44.04
55418;BME280;41287;47.554;7.844;2023-05-01T09:27:38;97886.56;;;19.51;43.95
55418;BME280;41287;47.554;7.844;2023-05-01T09:30:04;97879.63;;;19.53;44.02
55418;BME280;41287;47.554;7.844;2023-05-01T09:32:31;97878.81;;;19.53;43.90
55418;BME280;41287;47.554;7.844;2023-05-01T09:35:11;97884.63;;;19.51;43.53
55418;BME280;41287;47.554;7.844;2023-05-01T09:37:37;97886.63;;;19.54;43.93
55418;BME280;41287;47.554;7.844;2023-05-01T09:42:33;97888.22;;;19.55;44.61
55418;BME280;41287;47.554;7.844;2023-05-01T09:44:59;97890.59;;;19.57;44.51
55418;BME280;41287;47.554;7.844;2023-05-01T09:47:26;97888.69;;;19.57;44.25
55418;BME280;41287;47.554;7.844;2023-05-01T09:49:54;97888.31;;;19.59;44.29
55418;BME280;41287;47.554;7.844;2023-05-01T09:52:20;97887.97;;;19.60;44.08
55418;BME280;41287;47.554;7.844;2023-05-01T09:54:46;97890.34;;;19.62;44.13
55418;BME280;41287;47.554;7.844;2023-05-01T09:57:11;97884.13;;;19.61;43.89
55418;BME280;41287;47.554;7.844;2023-05-01T09:59:38;97885.25;;;19.60;43.77
55418;BME280;41287;47.554;7.844;2023-05-01T10:02:04;97883.78;;;19.63;43.76
55418;BME280;41287;47.554;7.844;2023-05-01T10:04:34;97881.88;;;19.63;43.64
55418;BME280;41287;47.554;7.844;2023-05-01T10:07:11;97880.28;;;19.62;43.48
55418;BME280;41287;47.554;7.844;2023-05-01T10:09:40;97879.94;;;19.64;43.64
55418;BME280;41287;47.554;7.844;2023-05-01T10:12:06;97875.28;;;19.64;43.62
55418;BME280;41287;47.554;7.844;2023-05-01T10:14:31;97883.78;;;19.63;43.63
55418;BME280;41287;47.554;7.844;2023-05-01T10:17:16;97876.75;;;19.62;43.63
55418;BME280;41287;47.554;7.844;2023-05-01T10:19:41;97878.34;;;19.63;43.48
55418;BME280;41287;47.554;7.844;2023-05-01T10:22:07;97880.38;;;19.66;43.50
55418;BME280;41287;47.554;7.844;2023-05-01T10:24:32;97883.09;;;19.66;43.37
55418;BME280;41287;47.554;7.844;2023-05-01T10:27:00;97880.03;;;19.67;43.28
55418;BME280;41287;47.554;7.844;2023-05-01T10:29:30;97876.19;;;19.68;43.15
55418;BME280;41287;47.554;7.844;2023-05-01T10:31:56;97873.47;;;19.68;43.31
55418;BME280;41287;47.554;7.844;2023-05-01T10:34:24;97876.97;;;19.69;43.39
55418;BME280;41287;47.554;7.844;2023-05-01T10:36:57;97872.66;;;19.68;43.14
55418;BME280;41287;47.554;7.844;2023-05-01T10:39:29;97875.50;;;19.71;43.48
55418;BME280;41287;47.554;7.844;2023-05-01T10:42:10;97878.22;;;19.71;43.69
55418;BME280;41287;47.554;7.844;2023-05-01T10:44:41;97870.81;;;19.72;43.97
55418;BME280;41287;47.554;7.844;2023-05-01T10:50:09;97863.91;;;19.75;44.29
55418;BME280;41287;47.554;7.844;2023-05-01T10:58:07;97868.69;;;19.78;43.66
55418;BME280;41287;47.554;7.844;2023-05-01T11:00:32;97874.13;;;19.78;43.80
55418;BME280;41287;47.554;7.844;2023-05-01T11:08:34;97869.09;;;19.80;43.45
55418;BME280;41287;47.554;7.844;2023-05-01T11:14:06;97868.75;;;19.81;43.67
55418;BME280;41287;47.554;7.844;2023-05-01T11:21:57;97860.72;;;19.85;44.86
55418;BME280;41287;47.554;7.844;2023-05-01T11:24:32;97856.06;;;19.85;44.43
55418;BME280;41287;47.554;7.844;2023-05-01T11:26:58;97858.41;;;19.87;43.92
55418;BME280;41287;47.554;7.844;2023-05-01T11:29:32;97848.34;;;19.87;43.83
55418;BME280;41287;47.554;7.844;2023-05-01T11:31:59;97849.91;;;19.88;43.73
55418;BME280;41287;47.554;7.844;2023-05-01T11:34:25;97850.72;;;19.89;43.70
55418;BME280;41287;47.554;7.844;2023-05-01T11:36:51;97851.50;;;19.89;43.44
55418;BME280;41287;47.554;7.844;2023-05-01T11:39:17;97844.16;;;19.90;43.44
55418;BME280;41287;47.554;7.844;2023-05-01T11:41:43;97850.03;;;19.92;43.24
55418;BME280;41287;47.554;7.844;2023-05-01T11:44:14;97848.44;;;19.91;43.12
55418;BME280;41287;47.554;7.844;2023-05-01T11:46:42;97841.09;;;19.91;43.07
55418;BME280;41287;47.554;7.844;2023-05-01T11:49:08;97846.16;;;19.93;43.18
55418;BME280;41287;47.554;7.844;2023-05-01T11:51:34;97841.50;;;19.93;43.11
55418;BME280;41287;47.554;7.844;2023-05-01T11:54:01;97842.28;;;19.94;43.03
55418;BME280;41287;47.554;7.844;2023-05-01T11:56:28;97834.13;;;19.94;42.96
55418;BME280;41287;47.554;7.844;2023-05-01T11:58:57;97834.13;;;19.94;43.09
55418;BME280;41287;47.554;7.844;2023-05-01T12:01:39;97836.84;;;19.94;42.92
55418;BME280;41287;47.554;7.844;2023-05-01T12:04:08;97831.88;;;19.96;42.94
55418;BME280;41287;47.554;7.844;2023-05-01T12:06:42;97829.16;;;19.96;42.85
55418;BME280;41287;47.554;7.844;2023-05-01T12:09:14;97835.38;;;19.96;42.75
55418;BME280;41287;47.554;7.844;2023-05-01T12:11:40;97831.53;;;19.97;42.73
55418;BME280;41287;47.554;7.844;2023-05-01T12:14:06;97837.75;;;19.98;42.69
55418;BME280;41287;47.554;7.844;2023-05-01T12:16:32;97844.78;;;19.99;42.67
55418;BME280;41287;47.554;7.844;2023-05-01T12:18:57;97846.34;;;20.00;42.56
55418;BME280;41287;47.554;7.844;2023-05-01T12:21:23;97844.00;;;19.98;42.57
55418;BME280;41287;47.554;7.844;2023-05-01T12:23:50;97842.06;;;19.99;42.46
55418;BME280;41287;47.554;7.844;2023-05-01T12:26:18;97844.78;;;19.99;42.47
55418;BME280;41287;47.554;7.844;2023-05-01T12:29:01;97850.56;;;19.97;42.49
55418;BME280;41287;47.554;7.844;2023-05-01T12:31:27;97840.47;;;19.98;42.46
55418;BME280;41287;47.554;7.844;2023-05-01T12:34:03;97837.75;;;19.98;42.49
55418;BME280;41287;47.554;7.844;2023-05-01T12:36:30;97838.56;;;19.98;42.33
55418;BME280;41287;47.554;7.844;2023-05-01T12:39:05;97835.84;;;19.98;42.27
55418;BME280;41287;47.554;7.844;2023-05-01T12:41:41;97840.47;;;19.98;42.34
55418;BME280;41287;47.554;7.844;2023-05-01T12:44:22;97839.34;;;19.99;42.30
55418;BME280;41287;47.554;7.844;2023-05-01T12:47:06;97834.66;;;19.99;42.29
55418;BME280;41287;47.554;7.844;2023-05-01T12:49:33;97833.53;;;20.00;42.33
55418;BME280;41287;47.554;7.844;2023-05-01T12:52:02;97823.78;;;19.99;42.30
55418;BME280;41287;47.554;7.844;2023-05-01T12:54:33;97834.66;;;19.99;42.24
55418;BME280;41287;47.554;7.844;2023-05-01T12:59:35;97824.59;;;20.00;42.24
55418;BME280;41287;47.554;7.844;2023-05-01T13:02:03;97825.38;;;20.00;42.24
55418;BME280;41287;47.554;7.844;2023-05-01T13:04:29;97821.53;;;20.01;42.13
55418;BME280;41287;47.554;7.844;2023-05-01T13:06:55;97826.97;;;20.01;42.09
55418;BME280;41287;47.554;7.844;2023-05-01T13:09:22;97825.81;;;20.02;42.21
55418;BME280;41287;47.554;7.844;2023-05-01T13:12:03;97815.28;;;20.01;42.02
55418;BME280;41287;47.554;7.844;2023-05-01T13:14:39;97818.00;;;20.01;42.00
55418;BME280;41287;47.554;7.844;2023-05-01T13:17:08;97815.75;;;20.03;42.11
55418;BME280;41287;47.554;7.844;2023-05-01T13:19:34;97818.13;;;20.04;42.05
55418;BME280;41287;47.554;7.844;2023-05-01T13:21:59;97812.69;;;20.04;41.97
55418;BME280;41287;47.554;7.844;2023-05-01T13:24:40;97808.38;;;20.03;42.05
55418;BME280;41287;47.554;7.844;2023-05-01T13:27:10;97800.66;;;20.05;42.00
55418;BME280;41287;47.554;7.844;2023-05-01T13:29:37;97803.00;;;20.07;41.91
55418;BME280;41287;47.554;7.844;2023-05-01T13:32:03;97798.75;;;20.06;41.90
55418;BME280;41287;47.554;7.844;2023-05-01T13:34:32;97806.91;;;20.06;42.18
55418;BME280;41287;47.554;7.844;2023-05-01T13:36:58;97793.28;;;20.06;41.95
55418;BME280;41287;47.554;7.844;2023-05-01T13:39:24;97798.38;;;20.07;41.87
55418;BME280;41287;47.554;7.844;2023-05-01T13:41:51;97794.06;;;20.06;42.01
55418;BME280;41287;47.554;7.844;2023-05-01T13:44:17;97797.56;;;20.07;41.79